sensor_id;sensor_type;location;lat;lon;timestamp;P1;durP1;ratioP1;P2;durP2;ratioP2
5149;SDS011;2593;52.466;13.436;2023-05-07T00:01:54;25.57;;;15.67;;
5149;SDS011;2593;52.466;13.436;2023-05-07T00:04:20;25.63;;;16.37;;
5149;SDS011;2593;52.466;13.436;2023-05-07T00:06:47;23.80;;;16.27;;
5149;SDS011;2593;52.466;13.436;2023-05-07T00:09:13;34.47;;;15.37;;
5149;SDS011;2593;52.466;13.436;2023-05-07T00:11:39;30.17;;;15.63;;
5149;SDS011;2593;52.466;13.436;2023-05-07T00:14:05;28.00;;;15.77;;
5149;SDS011;2593;52.466;13.436;2023-05-07T00:16:31;19.43;;;14.90;;
5149;SDS011;2593;52.466;13.436;2023-05-07T00:18:57;23.40;;;16.20;;
5149;SDS011;2593;52.466;13.436;2023-05-07T00:21:23;26.37;;;15.60;;
5149;SDS011;2593;52.466;13.436;2023-05-07T00:23:53;23.50;;;15.80;;
5149;SDS011;2593;52.466;13.436;2023-05-07T00:26:19;26.20;;;16.00;;
5149;SDS011;2593;52.466;13.436;2023-05-07T00:28:45;21.97;;;15.27;;
5149;SDS011;2593;52.466;13.436;2023-05-07T00:31:11;20.03;;;14.70;;
5149;SDS011;2593;52.466;13.436;2023-05-07T00:33:38;26.20;;;15.00;;
5149;SDS011;2593;52.466;13.436;2023-05-07T00:36:04;23.30;;;15.73;;
5149;SDS011;2593;52.466;13.436;2023-05-07T00:38:30;23.10;;;15.17;;
5149;SDS011;2593;52.466;13.436;2023-05-07T00:40:56;23.37;;;14.93;;
5149;SDS011;2593;52.466;13.436;2023-05-07T00:43:22;21.07;;;14.23;;
5149;SDS011;2593;52.466;13.436;2023-05-07T00:45:48;20.63;;;13.63;;
5149;SDS011;2593;52.466;13.436;2023-05-07T00:48:15;20.40;;;14.07;;
5149;SDS011;2593;52.466;13.436;2023-05-07T00:50:41;16.70;;;13.37;;
5149;SDS011;2593;52.466;13.436;2023-05-07T00:53:07;18.70;;;13.97;;
5149;SDS011;2593;52.466;13.436;2023-05-07T00:55:34;26.30;;;15.93;;
5149;SDS011;2593;52.466;13.436;2023-05-07T00:58:01;26.40;;;16.33;;
5149;SDS011;2593;52.466;13.436;2023-05-07T01:00:27;21.20;;;15.20;;
5149;SDS011;2593;52.466;13.436;2023-05-07T01:02:53;22.33;;;14.03;;
5149;SDS011;2593;52.466;13.436;2023-05-07T01:05:20;23.00;;;15.03;;
5149;SDS011;2593;52.466;13.436;2023-05-07T01:07:46;29.90;;;16.50;;
5149;SDS011;2593;52.466;13.436;2023-05-07T01:10:13;22.47;;;14.90;;
5149;SDS011;2593;52.466;13.436;2023-05-07T01:12:39;19.70;;;14.50;;
5149;SDS011;2593;52.466;13.436;2023-05-07T01:15:07;20.17;;;15.07;;
5149;SDS011;2593;52.466;13.436;2023-05-07T01:17:34;21.17;;;13.47;;
5149;SDS011;2593;52.466;13.436;2023-05-07T01:20:00;18.27;;;14.30;;
5149;SDS011;2593;52.466;13.436;2023-05-07T01:22:28;21.67;;;14.90;;
5149;SDS011;2593;52.466;13.436;2023-05-07T01:24:56;20.37;;;14.80;;
5149;SDS011;2593;52.466;13.436;2023-05-07T01:27:24;24.37;;;14.67;;
5149;SDS011;2593;52.466;13.436;2023-05-07T01:29:50;25.70;;;15.87;;
5149;SDS011;2593;52.466;13.436;2023-05-07T01:32:17;23.50;;;15.23;;
5149;SDS011;2593;52.466;13.436;2023-05-07T01:34:44;19.53;;;13.80;;
5149;SDS011;2593;52.466;13.436;2023-05-07T01:37:11;32.53;;;15.30;;
5149;SDS011;2593;52.466;13.436;2023-05-07T01:39:38;23.30;;;15.97;;
5149;SDS011;2593;52.466;13.436;2023-05-07T01:42:04;19.23;;;13.23;;
5149;SDS011;2593;52.466;13.436;2023-05-07T01:44:31;24.63;;;13.63;;
5149;SDS011;2593;52.466;13.436;2023-05-07T01:46:58;23.00;;;15.33;;
5149;SDS011;2593;52.466;13.436;2023-05-07T01:49:24;20.27;;;14.80;;
5149;SDS011;2593;52.466;13.436;2023-05-07T01:51:51;20.70;;;14.17;;
5149;SDS011;2593;52.466;13.436;2023-05-07T01:54:17;26.17;;;14.23;;
5149;SDS011;2593;52.466;13.436;2023-05-07T01:56:43;21.43;;;13.60;;
5149;SDS011;2593;52.466;13.436;2023-05-07T01:59:09;18.00;;;12.93;;
5149;SDS011;2593;52.466;13.436;2023-05-07T02:01:35;26.10;;;14.67;;
5149;SDS011;2593;52.466;13.436;2023-05-07T02:04:01;20.07;;;13.00;;
5149;SDS011;2593;52.466;13.436;2023-05-07T02:06:27;17.57;;;12.70;;
5149;SDS011;2593;52.466;13.436;2023-05-07T02:08:54;21.33;;;13.13;;
5149;SDS011;2593;52.466;13.436;2023-05-07T02:11:20;23.70;;;14.70;;
5149;SDS011;2593;52.466;13.436;2023-05-07T02:13:46;24.97;;;13.97;;
5149;SDS011;2593;52.466;13.436;2023-05-07T02:16:12;21.17;;;13.53;;
5149;SDS011;2593;52.466;13.436;2023-05-07T02:18:39;19.70;;;12.97;;
5149;SDS011;2593;52.466;13.436;2023-05-07T02:21:05;18.37;;;14.23;;
5149;SDS011;2593;52.466;13.436;2023-05-07T02:23:31;24.40;;;14.23;;
5149;SDS011;2593;52.466;13.436;2023-05-07T02:25:57;18.23;;;14.50;;
5149;SDS011;2593;52.466;13.436;2023-05-07T02:28:23;19.63;;;13.60;;
5149;SDS011;2593;52.466;13.436;2023-05-07T02:30:50;20.30;;;13.97;;
5149;SDS011;2593;52.466;13.436;2023-05-07T02:33:16;19.37;;;12.33;;
5149;SDS011;2593;52.466;13.436;2023-05-07T02:35:42;20.47;;;13.73;;
5149;SDS011;2593;52.466;13.436;2023-05-07T02:38:08;21.00;;;13.60;;
5149;SDS011;2593;52.466;13.436;2023-05-07T02:40:35;19.13;;;12.80;;
5149;SDS011;2593;52.466;13.436;2023-05-07T02:43:04;20.37;;;14.53;;
5149;SDS011;2593;52.466;13.436;2023-05-07T02:45:31;27.27;;;15.97;;
5149;SDS011;2593;52.466;13.436;2023-05-07T02:47:57;24.23;;;14.23;;
5149;SDS011;2593;52.466;13.436;2023-05-07T02:50:23;25.03;;;14.50;;
5149;SDS011;2593;52.466;13.436;2023-05-07T02:52:50;14.57;;;12.43;;
5149;SDS011;2593;52.466;13.436;2023-05-07T02:55:16;19.23;;;14.10;;
5149;SDS011;2593;52.466;13.436;2023-05-07T02:57:42;20.70;;;14.47;;
5149;SDS011;2593;52.466;13.436;2023-05-07T03:00:16;26.63;;;14.63;;
5149;SDS011;2593;52.466;13.436;2023-05-07T03:02:42;26.43;;;13.50;;
5149;SDS011;2593;52.466;13.436;2023-05-07T03:05:08;19.67;;;14.40;;
5149;SDS011;2593;52.466;13.436;2023-05-07T03:07:35;24.83;;;14.20;;
5149;SDS011;2593;52.466;13.436;2023-05-07T03:10:02;20.77;;;14.17;;
5149;SDS011;2593;52.466;13.436;2023-05-07T03:12:28;22.53;;;13.33;;
5149;SDS011;2593;52.466;13.436;2023-05-07T03:14:54;25.70;;;12.67;;
5149;SDS011;2593;52.466;13.436;2023-05-07T03:17:21;16.60;;;12.53;;
5149;SDS011;2593;52.466;13.436;2023-05-07T03:19:47;20.40;;;13.40;;
5149;SDS011;2593;52.466;13.436;2023-05-07T03:22:13;23.13;;;13.97;;
5149;SDS011;2593;52.466;13.436;2023-05-07T03:24:39;20.30;;;13.80;;
5149;SDS011;2593;52.466;13.436;2023-05-07T03:27:05;18.53;;;13.80;;
5149;SDS011;2593;52.466;13.436;2023-05-07T03:29:32;23.63;;;13.00;;
5149;SDS011;2593;52.466;13.436;2023-05-07T03:31:58;15.43;;;11.73;;
5149;SDS011;2593;52.466;13.436;2023-05-07T03:34:24;19.40;;;13.20;;
5149;SDS011;2593;52.466;13.436;2023-05-07T03:36:50;20.83;;;14.07;;
5149;SDS011;2593;52.466;13.436;2023-05-07T03:39:16;21.03;;;13.50;;
5149;SDS011;2593;52.466;13.436;2023-05-07T03:41:42;24.80;;;13.10;;
5149;SDS011;2593;52.466;13.436;2023-05-07T03:44:08;18.00;;;13.30;;
5149;SDS011;2593;52.466;13.436;2023-05-07T03:46:34;17.00;;;13.23;;
5149;SDS011;2593;52.466;13.436;2023-05-07T03:49:00;22.53;;;12.50;;
5149;SDS011;2593;52.466;13.436;2023-05-07T03:51:26;20.13;;;13.00;;
5149;SDS011;2593;52.466;13.436;2023-05-07T03:53:52;18.80;;;12.50;;
5149;SDS011;2593;52.466;13.436;2023-05-07T03:56:19;16.80;;;12.43;;
5149;SDS011;2593;52.466;13.436;2023-05-07T03:58:46;18.33;;;14.03;;
5149;SDS011;2593;52.466;13.436;2023-05-07T04:01:13;19.13;;;11.93;;
5149;SDS011;2593;52.466;13.436;2023-05-07T04:03:39;20.13;;;12.77;;
5149;SDS011;2593;52.466;13.436;2023-05-07T04:06:05;17.70;;;13.30;;
5149;SDS011;2593;52.466;13.436;2023-05-07T04:08:31;15.67;;;12.73;;
5149;SDS011;2593;52.466;13.436;2023-05-07T04:10:57;24.23;;;12.47;;
5149;SDS011;2593;52.466;13.436;2023-05-07T04:13:24;17.73;;;12.57;;
5149;SDS011;2593;52.466;13.436;2023-05-07T04:15:54;23.07;;;13.50;;
5149;SDS011;2593;52.466;13.436;2023-05-07T04:18:20;31.30;;;13.10;;
5149;SDS011;2593;52.466;13.436;2023-05-07T04:20:49;18.40;;;12.50;;
5149;SDS011;2593;52.466;13.436;2023-05-07T04:23:15;16.37;;;12.57;;
5149;SDS011;2593;52.466;13.436;2023-05-07T04:25:41;23.70;;;12.80;;
5149;SDS011;2593;52.466;13.436;2023-05-07T04:28:07;17.03;;;10.93;;
5149;SDS011;2593;52.466;13.436;2023-05-07T04:30:34;23.77;;;13.33;;
5149;SDS011;2593;52.466;13.436;2023-05-07T04:33:00;20.10;;;12.07;;
5149;SDS011;2593;52.466;13.436;2023-05-07T04:35:26;12.77;;;10.63;;
5149;SDS011;2593;52.466;13.436;2023-05-07T04:37:52;17.73;;;11.03;;
5149;SDS011;2593;52.466;13.436;2023-05-07T04:40:19;14.33;;;10.63;;
5149;SDS011;2593;52.466;13.436;2023-05-07T04:42:45;21.70;;;12.30;;
5149;SDS011;2593;52.466;13.436;2023-05-07T04:45:11;14.67;;;11.07;;
5149;SDS011;2593;52.466;13.436;2023-05-07T04:47:38;22.50;;;12.00;;
5149;SDS011;2593;52.466;13.436;2023-05-07T04:50:07;12.70;;;10.57;;
5149;SDS011;2593;52.466;13.436;2023-05-07T04:52:33;14.80;;;10.47;;
5149;SDS011;2593;52.466;13.436;2023-05-07T04:54:59;12.90;;;10.00;;
5149;SDS011;2593;52.466;13.436;2023-05-07T04:57:26;12.77;;;10.33;;
5149;SDS011;2593;52.466;13.436;2023-05-07T04:59:53;22.93;;;10.40;;
5149;SDS011;2593;52.466;13.436;2023-05-07T05:02:19;11.47;;;9.10;;
5149;SDS011;2593;52.466;13.436;2023-05-07T05:04:45;12.10;;;10.10;;
5149;SDS011;2593;52.466;13.436;2023-05-07T05:07:11;14.00;;;9.50;;
5149;SDS011;2593;52.466;13.436;2023-05-07T05:09:37;13.27;;;9.43;;
5149;SDS011;2593;52.466;13.436;2023-05-07T05:12:03;12.57;;;10.17;;
5149;SDS011;2593;52.466;13.436;2023-05-07T05:14:32;13.90;;;10.07;;
5149;SDS011;2593;52.466;13.436;2023-05-07T05:16:58;27.03;;;9.70;;
5149;SDS011;2593;52.466;13.436;2023-05-07T05:21:53;11.87;;;9.47;;
5149;SDS011;2593;52.466;13.436;2023-05-07T05:24:19;14.60;;;9.43;;
5149;SDS011;2593;52.466;13.436;2023-05-07T05:26:45;13.23;;;9.47;;
5149;SDS011;2593;52.466;13.436;2023-05-07T05:29:11;18.73;;;10.03;;
5149;SDS011;2593;52.466;13.436;2023-05-07T05:31:37;14.90;;;8.67;;
5149;SDS011;2593;52.466;13.436;2023-05-07T05:34:03;11.63;;;9.40;;
5149;SDS011;2593;52.466;13.436;2023-05-07T05:36:29;10.70;;;9.17;;
5149;SDS011;2593;52.466;13.436;2023-05-07T05:38:55;11.00;;;8.83;;
5149;SDS011;2593;52.466;13.436;2023-05-07T05:41:21;14.10;;;8.40;;
5149;SDS011;2593;52.466;13.436;2023-05-07T05:43:48;11.50;;;9.57;;
5149;SDS011;2593;52.466;13.436;2023-05-07T05:46:14;11.93;;;8.93;;
5149;SDS011;2593;52.466;13.436;2023-05-07T05:48:40;12.20;;;9.33;;
5149;SDS011;2593;52.466;13.436;2023-05-07T05:51:07;17.70;;;9.27;;
5149;SDS011;2593;52.466;13.436;2023-05-07T05:53:33;19.03;;;8.97;;
5149;SDS011;2593;52.466;13.436;2023-05-07T05:55:59;13.03;;;9.03;;
5149;SDS011;2593;52.466;13.436;2023-05-07T05:58:25;14.07;;;8.63;;
5149;SDS011;2593;52.466;13.436;2023-05-07T06:00:51;12.67;;;8.30;;
5149;SDS011;2593;52.466;13.436;2023-05-07T06:03:18;11.80;;;8.97;;
5149;SDS011;2593;52.466;13.436;2023-05-07T06:05:44;11.73;;;7.47;;
5149;SDS011;2593;52.466;13.436;2023-05-07T06:08:10;14.53;;;7.80;;
5149;SDS011;2593;52.466;13.436;2023-05-07T06:10:37;14.60;;;7.57;;
5149;SDS011;2593;52.466;13.436;2023-05-07T06:13:03;13.37;;;7.80;;
5149;SDS011;2593;52.466;13.436;2023-05-07T06:15:29;10.80;;;8.23;;
5149;SDS011;2593;52.466;13.436;2023-05-07T06:17:55;14.93;;;9.23;;
5149;SDS011;2593;52.466;13.436;2023-05-07T06:20:22;13.80;;;7.83;;
5149;SDS011;2593;52.466;13.436;2023-05-07T06:22:48;13.50;;;8.77;;
5149;SDS011;2593;52.466;13.436;2023-05-07T06:25:15;11.93;;;8.93;;
5149;SDS011;2593;52.466;13.436;2023-05-07T06:27:41;10.67;;;8.27;;
5149;SDS011;2593;52.466;13.436;2023-05-07T06:30:07;9.60;;;7.70;;
5149;SDS011;2593;52.466;13.436;2023-05-07T06:32:34;10.63;;;8.30;;
5149;SDS011;2593;52.466;13.436;2023-05-07T06:35:00;12.37;;;8.23;;
5149;SDS011;2593;52.466;13.436;2023-05-07T06:37:26;13.23;;;8.50;;
5149;SDS011;2593;52.466;13.436;2023-05-07T06:39:52;11.67;;;8.40;;
5149;SDS011;2593;52.466;13.436;2023-05-07T06:42:18;13.73;;;9.00;;
5149;SDS011;2593;52.466;13.436;2023-05-07T06:44:44;11.20;;;7.60;;
5149;SDS011;2593;52.466;13.436;2023-05-07T06:47:10;16.60;;;8.40;;
5149;SDS011;2593;52.466;13.436;2023-05-07T06:49:36;10.20;;;7.90;;
5149;SDS011;2593;52.466;13.436;2023-05-07T06:52:02;11.10;;;7.73;;
5149;SDS011;2593;52.466;13.436;2023-05-07T06:54:28;13.00;;;7.90;;
5149;SDS011;2593;52.466;13.436;2023-05-07T06:56:54;12.80;;;8.07;;
5149;SDS011;2593;52.466;13.436;2023-05-07T06:59:21;22.93;;;6.97;;
5149;SDS011;2593;52.466;13.436;2023-05-07T07:01:47;10.93;;;7.20;;
5149;SDS011;2593;52.466;13.436;2023-05-07T07:04:13;8.77;;;6.90;;
5149;SDS011;2593;52.466;13.436;2023-05-07T07:06:39;13.83;;;7.23;;
5149;SDS011;2593;52.466;13.436;2023-05-07T07:09:05;12.07;;;8.13;;
5149;SDS011;2593;52.466;13.436;2023-05-07T07:11:31;11.23;;;7.57;;
5149;SDS011;2593;52.466;13.436;2023-05-07T07:13:57;9.47;;;7.03;;
5149;SDS011;2593;52.466;13.436;2023-05-07T07:16:24;9.87;;;7.87;;
5149;SDS011;2593;52.466;13.436;2023-05-07T07:18:50;10.43;;;7.23;;
5149;SDS011;2593;52.466;13.436;2023-05-07T07:21:16;9.00;;;6.47;;
5149;SDS011;2593;52.466;13.436;2023-05-07T07:23:42;8.80;;;7.07;;
5149;SDS011;2593;52.466;13.436;2023-05-07T07:26:08;11.70;;;6.60;;
5149;SDS011;2593;52.466;13.436;2023-05-07T07:28:35;7.07;;;5.80;;
5149;SDS011;2593;52.466;13.436;2023-05-07T07:31:01;10.40;;;7.07;;
5149;SDS011;2593;52.466;13.436;2023-05-07T07:33:27;8.50;;;5.17;;
5149;SDS011;2593;52.466;13.436;2023-05-07T07:35:53;8.50;;;5.50;;
5149;SDS011;2593;52.466;13.436;2023-05-07T07:38:19;7.53;;;5.27;;
5149;SDS011;2593;52.466;13.436;2023-05-07T07:40:47;12.87;;;5.70;;
5149;SDS011;2593;52.466;13.436;2023-05-07T07:43:13;5.03;;;4.53;;
5149;SDS011;2593;52.466;13.436;2023-05-07T07:45:39;8.00;;;4.50;;
5149;SDS011;2593;52.466;13.436;2023-05-07T07:48:05;11.33;;;5.50;;
5149;SDS011;2593;52.466;13.436;2023-05-07T07:50:31;5.03;;;4.57;;
5149;SDS011;2593;52.466;13.436;2023-05-07T07:52:57;4.50;;;4.10;;
5149;SDS011;2593;52.466;13.436;2023-05-07T07:55:23;5.27;;;4.77;;
5149;SDS011;2593;52.466;13.436;2023-05-07T07:57:51;8.20;;;4.83;;
5149;SDS011;2593;52.466;13.436;2023-05-07T08:00:17;10.90;;;5.80;;
5149;SDS011;2593;52.466;13.436;2023-05-07T08:02:43;9.73;;;4.70;;
5149;SDS011;2593;52.466;13.436;2023-05-07T08:05:10;6.17;;;4.67;;
5149;SDS011;2593;52.466;13.436;2023-05-07T08:07:36;7.63;;;4.63;;
5149;SDS011;2593;52.466;13.436;2023-05-07T08:10:02;5.70;;;5.10;;
5149;SDS011;2593;52.466;13.436;2023-05-07T08:12:29;5.10;;;4.17;;
5149;SDS011;2593;52.466;13.436;2023-05-07T08:14:55;6.73;;;4.00;;
5149;SDS011;2593;52.466;13.436;2023-05-07T08:17:21;4.50;;;4.10;;
5149;SDS011;2593;52.466;13.436;2023-05-07T08:19:47;4.43;;;3.97;;
5149;SDS011;2593;52.466;13.436;2023-05-07T08:22:13;5.27;;;3.90;;
5149;SDS011;2593;52.466;13.436;2023-05-07T08:24:40;6.97;;;4.83;;
5149;SDS011;2593;52.466;13.436;2023-05-07T08:27:06;5.37;;;4.50;;
5149;SDS011;2593;52.466;13.436;2023-05-07T08:29:32;5.00;;;3.77;;
5149;SDS011;2593;52.466;13.436;2023-05-07T08:31:58;6.03;;;4.27;;
5149;SDS011;2593;52.466;13.436;2023-05-07T08:34:24;3.90;;;3.60;;
5149;SDS011;2593;52.466;13.436;2023-05-07T08:36:51;6.33;;;4.10;;
5149;SDS011;2593;52.466;13.436;2023-05-07T08:39:17;6.63;;;4.40;;
5149;SDS011;2593;52.466;13.436;2023-05-07T08:41:46;4.23;;;3.60;;
5149;SDS011;2593;52.466;13.436;2023-05-07T08:44:14;13.13;;;3.73;;
5149;SDS011;2593;52.466;13.436;2023-05-07T08:46:40;5.80;;;3.53;;
5149;SDS011;2593;52.466;13.436;2023-05-07T08:49:08;5.27;;;3.50;;
5149;SDS011;2593;52.466;13.436;2023-05-07T08:51:34;3.50;;;2.97;;
5149;SDS011;2593;52.466;13.436;2023-05-07T08:54:01;2.80;;;2.60;;
5149;SDS011;2593;52.466;13.436;2023-05-07T08:56:27;4.60;;;3.20;;
5149;SDS011;2593;52.466;13.436;2023-05-07T08:58:53;3.60;;;3.13;;
5149;SDS011;2593;52.466;13.436;2023-05-07T09:01:23;9.50;;;3.37;;
5149;SDS011;2593;52.466;13.436;2023-05-07T09:03:50;10.17;;;3.40;;
5149;SDS011;2593;52.466;13.436;2023-05-07T09:06:17;22.73;;;2.83;;
5149;SDS011;2593;52.466;13.436;2023-05-07T09:08:53;3.33;;;3.03;;
5149;SDS011;2593;52.466;13.436;2023-05-07T09:11:22;5.03;;;3.53;;
5149;SDS011;2593;52.466;13.436;2023-05-07T09:13:53;8.87;;;3.03;;
5149;SDS011;2593;52.466;13.436;2023-05-07T09:16:20;5.00;;;3.10;;
5149;SDS011;2593;52.466;13.436;2023-05-07T09:18:48;4.00;;;3.03;;
5149;SDS011;2593;52.466;13.436;2023-05-07T09:21:16;2.90;;;2.63;;
5149;SDS011;2593;52.466;13.436;2023-05-07T09:23:43;3.63;;;3.30;;
5149;SDS011;2593;52.466;13.436;2023-05-07T09:26:09;3.40;;;3.10;;
5149;SDS011;2593;52.466;13.436;2023-05-07T09:28:40;7.20;;;2.77;;
5149;SDS011;2593;52.466;13.436;2023-05-07T09:31:06;3.53;;;2.60;;
5149;SDS011;2593;52.466;13.436;2023-05-07T09:33:32;3.67;;;3.17;;
5149;SDS011;2593;52.466;13.436;2023-05-07T09:36:01;3.30;;;2.97;;
5149;SDS011;2593;52.466;13.436;2023-05-07T09:38:28;3.13;;;2.93;;
5149;SDS011;2593;52.466;13.436;2023-05-07T09:41:01;2.77;;;2.57;;
5149;SDS011;2593;52.466;13.436;2023-05-07T09:43:31;10.40;;;4.67;;
5149;SDS011;2593;52.466;13.436;2023-05-07T09:45:58;5.43;;;2.53;;
5149;SDS011;2593;52.466;13.436;2023-05-07T09:48:25;5.43;;;3.00;;
5149;SDS011;2593;52.466;13.436;2023-05-07T09:50:51;4.07;;;3.53;;
5149;SDS011;2593;52.466;13.436;2023-05-07T09:53:19;3.77;;;3.13;;
5149;SDS011;2593;52.466;13.436;2023-05-07T09:55:45;8.30;;;3.10;;
5149;SDS011;2593;52.466;13.436;2023-05-07T09:58:12;5.53;;;3.23;;
5149;SDS011;2593;52.466;13.436;2023-05-07T10:00:39;2.53;;;2.33;;
5149;SDS011;2593;52.466;13.436;2023-05-07T10:03:05;6.23;;;2.40;;
5149;SDS011;2593;52.466;13.436;2023-05-07T10:05:32;5.87;;;2.60;;
5149;SDS011;2593;52.466;13.436;2023-05-07T10:07:58;5.23;;;2.63;;
5149;SDS011;2593;52.466;13.436;2023-05-07T10:10:25;2.13;;;1.67;;
5149;SDS011;2593;52.466;13.436;2023-05-07T10:12:52;2.10;;;1.90;;
5149;SDS011;2593;52.466;13.436;2023-05-07T10:15:18;3.17;;;2.27;;
5149;SDS011;2593;52.466;13.436;2023-05-07T10:17:44;1.87;;;1.77;;
5149;SDS011;2593;52.466;13.436;2023-05-07T10:20:10;2.13;;;1.90;;
5149;SDS011;2593;52.466;13.436;2023-05-07T10:22:43;2.83;;;1.80;;
5149;SDS011;2593;52.466;13.436;2023-05-07T10:27:42;1.80;;;1.50;;
5149;SDS011;2593;52.466;13.436;2023-05-07T10:35:02;1.87;;;1.77;;
5149;SDS011;2593;52.466;13.436;2023-05-07T10:37:29;2.00;;;1.80;;
5149;SDS011;2593;52.466;13.436;2023-05-07T10:39:55;2.40;;;1.67;;
5149;SDS011;2593;52.466;13.436;2023-05-07T10:42:22;2.43;;;1.80;;
5149;SDS011;2593;52.466;13.436;2023-05-07T10:44:48;3.43;;;2.00;;
5149;SDS011;2593;52.466;13.436;2023-05-07T10:47:18;2.23;;;1.80;;
5149;SDS011;2593;52.466;13.436;2023-05-07T10:52:23;4.10;;;1.90;;
5149;SDS011;2593;52.466;13.436;2023-05-07T10:55:34;2.30;;;2.10;;
5149;SDS011;2593;52.466;13.436;2023-05-07T10:57:43;4.00;;;2.03;;
5149;SDS011;2593;52.466;13.436;2023-05-07T11:00:56;2.90;;;1.80;;
5149;SDS011;2593;52.466;13.436;2023-05-07T11:05:28;17.93;;;2.27;;
5149;SDS011;2593;52.466;13.436;2023-05-07T11:07:55;2.17;;;1.97;;
5149;SDS011;2593;52.466;13.436;2023-05-07T11:10:21;1.57;;;1.47;;
5149;SDS011;2593;52.466;13.436;2023-05-07T11:12:48;7.50;;;2.33;;
5149;SDS011;2593;52.466;13.436;2023-05-07T11:15:15;2.33;;;2.17;;
5149;SDS011;2593;52.466;13.436;2023-05-07T11:17:59;3.50;;;2.03;;
5149;SDS011;2593;52.466;13.436;2023-05-07T11:26:06;5.90;;;3.37;;
5149;SDS011;2593;52.466;13.436;2023-05-07T11:28:39;2.50;;;1.73;;
5149;SDS011;2593;52.466;13.436;2023-05-07T11:31:06;2.30;;;1.67;;
5149;SDS011;2593;52.466;13.436;2023-05-07T11:33:32;1.90;;;1.70;;
5149;SDS011;2593;52.466;13.436;2023-05-07T11:36:02;2.33;;;2.13;;
5149;SDS011;2593;52.466;13.436;2023-05-07T11:38:29;2.00;;;1.90;;
5149;SDS011;2593;52.466;13.436;2023-05-07T11:40:56;2.90;;;2.10;;
5149;SDS011;2593;52.466;13.436;2023-05-07T11:43:22;3.13;;;2.30;;
5149;SDS011;2593;52.466;13.436;2023-05-07T11:45:48;3.00;;;2.27;;
5149;SDS011;2593;52.466;13.436;2023-05-07T11:48:15;4.20;;;2.70;;
5149;SDS011;2593;52.466;13.436;2023-05-07T11:50:50;2.83;;;2.63;;
5149;SDS011;2593;52.466;13.436;2023-05-07T11:53:20;2.20;;;2.00;;
5149;SDS011;2593;52.466;13.436;2023-05-07T11:55:53;1.60;;;1.50;;
5149;SDS011;2593;52.466;13.436;2023-05-07T11:58:21;5.23;;;2.27;;
5149;SDS011;2593;52.466;13.436;2023-05-07T12:00:51;3.00;;;1.80;;
5149;SDS011;2593;52.466;13.436;2023-05-07T12:03:17;1.70;;;1.60;;
5149;SDS011;2593;52.466;13.436;2023-05-07T12:05:47;2.30;;;2.10;;
5149;SDS011;2593;52.466;13.436;2023-05-07T12:08:16;10.20;;;2.00;;
5149;SDS011;2593;52.466;13.436;2023-05-07T12:10:43;2.30;;;2.10;;
5149;SDS011;2593;52.466;13.436;2023-05-07T12:13:16;1.77;;;1.67;;
5149;SDS011;2593;52.466;13.436;2023-05-07T12:15:43;2.23;;;1.87;;
5149;SDS011;2593;52.466;13.436;2023-05-07T12:18:09;5.23;;;2.30;;
5149;SDS011;2593;52.466;13.436;2023-05-07T12:20:36;4.07;;;1.83;;
5149;SDS011;2593;52.466;13.436;2023-05-07T12:23:02;2.10;;;1.90;;
5149;SDS011;2593;52.466;13.436;2023-05-07T12:25:35;1.40;;;1.30;;
5149;SDS011;2593;52.466;13.436;2023-05-07T12:28:02;5.10;;;2.30;;
5149;SDS011;2593;52.466;13.436;2023-05-07T12:30:30;4.40;;;3.80;;
5149;SDS011;2593;52.466;13.436;2023-05-07T12:32:56;1.57;;;1.47;;
5149;SDS011;2593;52.466;13.436;2023-05-07T12:35:28;2.27;;;1.90;;
5149;SDS011;2593;52.466;13.436;2023-05-07T12:37:58;3.83;;;1.80;;
5149;SDS011;2593;52.466;13.436;2023-05-07T12:40:41;1.50;;;1.40;;
5149;SDS011;2593;52.466;13.436;2023-05-07T12:43:17;2.00;;;1.90;;
5149;SDS011;2593;52.466;13.436;2023-05-07T12:45:44;9.50;;;2.23;;
5149;SDS011;2593;52.466;13.436;2023-05-07T12:48:10;3.73;;;1.70;;
5149;SDS011;2593;52.466;13.436;2023-05-07T12:50:36;1.73;;;1.33;;
5149;SDS011;2593;52.466;13.436;2023-05-07T12:53:03;1.60;;;1.50;;
5149;SDS011;2593;52.466;13.436;2023-05-07T12:55:31;1.77;;;1.67;;
5149;SDS011;2593;52.466;13.436;2023-05-07T12:58:00;2.57;;;2.17;;
5149;SDS011;2593;52.466;13.436;2023-05-07T13:00:36;2.53;;;1.77;;
5149;SDS011;2593;52.466;13.436;2023-05-07T13:03:02;1.93;;;1.27;;
5149;SDS011;2593;52.466;13.436;2023-05-07T13:05:29;1.77;;;1.67;;
5149;SDS011;2593;52.466;13.436;2023-05-07T13:07:55;1.70;;;1.47;;
5149;SDS011;2593;52.466;13.436;2023-05-07T13:10:22;4.50;;;1.27;;
5149;SDS011;2593;52.466;13.436;2023-05-07T13:12:48;1.87;;;1.70;;
5149;SDS011;2593;52.466;13.436;2023-05-07T13:15:14;1.50;;;1.40;;
5149;SDS011;2593;52.466;13.436;2023-05-07T13:17:40;5.80;;;1.93;;
5149;SDS011;2593;52.466;13.436;2023-05-07T13:20:07;3.00;;;1.67;;
5149;SDS011;2593;52.466;13.436;2023-05-07T13:22:34;5.20;;;2.10;;
5149;SDS011;2593;52.466;13.436;2023-05-07T13:25:00;2.00;;;1.80;;
5149;SDS011;2593;52.466;13.436;2023-05-07T13:27:26;1.70;;;1.37;;
5149;SDS011;2593;52.466;13.436;2023-05-07T13:29:52;3.60;;;1.60;;
5149;SDS011;2593;52.466;13.436;2023-05-07T13:32:18;2.03;;;1.93;;
5149;SDS011;2593;52.466;13.436;2023-05-07T13:34:44;5.90;;;1.90;;
5149;SDS011;2593;52.466;13.436;2023-05-07T13:37:10;3.00;;;1.40;;
5149;SDS011;2593;52.466;13.436;2023-05-07T13:39:36;2.50;;;1.47;;
5149;SDS011;2593;52.466;13.436;2023-05-07T13:42:02;4.67;;;1.67;;
5149;SDS011;2593;52.466;13.436;2023-05-07T13:44:28;1.40;;;1.30;;
5149;SDS011;2593;52.466;13.436;2023-05-07T13:46:55;1.90;;;1.70;;
5149;SDS011;2593;52.466;13.436;2023-05-07T13:49:21;1.93;;;1.53;;
5149;SDS011;2593;52.466;13.436;2023-05-07T13:51:47;7.70;;;1.83;;
5149;SDS011;2593;52.466;13.436;2023-05-07T13:54:13;2.70;;;1.40;;
5149;SDS011;2593;52.466;13.436;2023-05-07T13:56:39;8.00;;;1.10;;
5149;SDS011;2593;52.466;13.436;2023-05-07T13:59:05;4.70;;;1.67;;
5149;SDS011;2593;52.466;13.436;2023-05-07T14:01:31;4.83;;;1.50;;
5149;SDS011;2593;52.466;13.436;2023-05-07T14:03:57;5.00;;;1.77;;
5149;SDS011;2593;52.466;13.436;2023-05-07T14:06:24;2.13;;;1.93;;
5149;SDS011;2593;52.466;13.436;2023-05-07T14:08:50;6.37;;;1.40;;
5149;SDS011;2593;52.466;13.436;2023-05-07T14:11:16;1.83;;;1.27;;
5149;SDS011;2593;52.466;13.436;2023-05-07T14:13:42;1.40;;;1.13;;
5149;SDS011;2593;52.466;13.436;2023-05-07T14:16:09;1.70;;;1.60;;
5149;SDS011;2593;52.466;13.436;2023-05-07T14:18:35;1.20;;;1.10;;
5149;SDS011;2593;52.466;13.436;2023-05-07T14:21:02;1.60;;;1.43;;
5149;SDS011;2593;52.466;13.436;2023-05-07T14:23:28;3.87;;;1.60;;
5149;SDS011;2593;52.466;13.436;2023-05-07T14:25:54;2.60;;;1.60;;
5149;SDS011;2593;52.466;13.436;2023-05-07T14:28:23;2.53;;;1.40;;
5149;SDS011;2593;52.466;13.436;2023-05-07T14:30:49;1.97;;;1.87;;
5149;SDS011;2593;52.466;13.436;2023-05-07T14:33:17;1.73;;;1.63;;
5149;SDS011;2593;52.466;13.436;2023-05-07T14:35:43;2.30;;;1.70;;
5149;SDS011;2593;52.466;13.436;2023-05-07T14:38:13;1.70;;;1.60;;
5149;SDS011;2593;52.466;13.436;2023-05-07T14:40:40;6.57;;;1.80;;
5149;SDS011;2593;52.466;13.436;2023-05-07T14:43:06;5.17;;;1.97;;
5149;SDS011;2593;52.466;13.436;2023-05-07T14:45:32;3.90;;;1.67;;
5149;SDS011;2593;52.466;13.436;2023-05-07T14:47:58;4.80;;;1.90;;
5149;SDS011;2593;52.466;13.436;2023-05-07T14:50:24;1.13;;;1.03;;
5149;SDS011;2593;52.466;13.436;2023-05-07T14:52:50;7.93;;;1.73;;
5149;SDS011;2593;52.466;13.436;2023-05-07T14:55:16;1.50;;;1.40;;
5149;SDS011;2593;52.466;13.436;2023-05-07T14:57:42;1.67;;;1.57;;
5149;SDS011;2593;52.466;13.436;2023-05-07T15:00:08;3.40;;;1.30;;
5149;SDS011;2593;52.466;13.436;2023-05-07T15:02:34;2.90;;;1.20;;
5149;SDS011;2593;52.466;13.436;2023-05-07T15:05:01;1.93;;;1.83;;
5149;SDS011;2593;52.466;13.436;2023-05-07T15:07:27;1.73;;;1.63;;
5149;SDS011;2593;52.466;13.436;2023-05-07T15:09:53;3.33;;;1.37;;